Time;durP1;ratioP1;P1;durP2;ratioP2;P2;SDS_P1;SDS_P2;PMS_P1;PMS_P2;Temp;Humidity;BMP_temperature;BMP_pressure;BME280_temperature;BME280_humidity;BME280_pressure;Samples;Min_cycle;Max_cycle;Signal;HPM_P1;HPM_P2
2022/06/12 00:00:20;;;;;;;10.05;3.00;;;;;;;10.91;95.03;102154.25;1052551;28;20297;-81
2022/06/12 00:00:52;;;;;;;8.05;3.70;;;;;;;11.06;95.21;102146.25;1046755;28;20296;-81
2022/06/12 00:01:24;;;;;;;12.05;3.40;;;;;;;11.29;94.87;102149.59;1043552;28;20295;-81
2022/06/12 00:01:57;;;;;;;10.70;4.20;;;;;;;11.40;94.12;102154.44;1043601;28;20307;-80
2022/06/12 00:02:28;;;;;;;16.38;4.47;;;;;;;11.22;94.03;102148.69;1042776;28;20300;-81
2022/06/12 00:03:01;;;;;;;7.20;3.47;;;;;;;11.15;93.91;102148.63;1044427;28;20298;-81
2022/06/12 00:03:33;;;;;;;12.10;3.40;;;;;;;11.21;93.83;102148.88;1047620;28;20804;-81
2022/06/12 00:04:05;;;;;;;7.72;3.63;;;;;;;11.17;93.67;102142.25;1048576;28;20301;-81
2022/06/12 00:04:55;;;;;;;7.80;3.65;;;;;;;11.38;93.40;102150.31;1052082;28;20424;-81
2022/06/12 00:05:31;;;;;;;7.80;3.72;;;;;;;11.28;93.17;102145.28;1055010;28;20303;-82
2022/06/12 00:06:05;;;;;;;6.18;2.90;;;;;;;11.62;92.93;102149.94;1051707;28;20711;-81
2022/06/12 00:06:37;;;;;;;8.15;3.47;;;;;;;11.79;92.58;102142.53;1051905;28;20304;-81
2022/06/12 00:07:09;;;;;;;9.38;3.90;;;;;;;11.89;91.88;102145.69;1048004;28;20345;-81
2022/06/12 00:07:41;;;;;;;11.43;3.85;;;;;;;11.94;91.28;102143.25;1048632;28;20352;-81
2022/06/12 00:08:14;;;;;;;8.48;3.28;;;;;;;11.98;90.64;102147.19;1047265;28;20373;-81
2022/06/12 00:08:47;;;;;;;7.50;2.90;;;;;;;11.93;90.61;102146.94;1047977;28;20275;-81
2022/06/12 00:09:25;;;;;;;6.50;2.72;;;;;;;11.96;89.69;102148.41;1047897;28;20298;-81
2022/06/12 00:09:57;;;;;;;6.32;2.70;;;;;;;11.94;89.64;102143.25;1049234;28;20876;-81
2022/06/12 00:10:29;;;;;;;8.82;3.10;;;;;;;11.84;89.84;102142.78;1046851;28;20309;-80
2022/06/12 00:11:05;;;;;;;7.32;2.75;;;;;;;11.84;90.07;102137.44;1044034;28;20312;-81
2022/06/12 00:11:37;;;;;;;5.07;2.80;;;;;;;11.75;90.00;102151.88;1050131;28;20303;-81
2022/06/12 00:12:09;;;;;;;15.85;3.13;;;;;;;11.90;90.16;102147.34;1044791;28;20310;-81
2022/06/12 00:12:42;;;;;;;10.70;2.70;;;;;;;11.89;89.96;102139.53;1048828;28;20306;-81
2022/06/12 00:13:17;;;;;;;11.18;3.47;;;;;;;11.76;89.50;102149.03;1051168;28;20317;-81
2022/06/12 00:13:52;;;;;;;6.18;2.95;;;;;;;11.77;90.21;102141.84;1055663;28;20361;-82
2022/06/12 00:14:24;;;;;;;15.57;3.83;;;;;;;11.71;89.78;102148.78;1056183;28;20301;-81
2022/06/12 00:14:55;;;;;;;7.22;2.80;;;;;;;11.88;89.99;102144.03;1054653;28;20305;-81
2022/06/12 00:15:29;;;;;;;5.72;3.38;;;;;;;11.89;89.28;102143.03;1053837;27;20309;-81
2022/06/12 00:16:01;;;;;;;16.58;3.90;;;;;;;11.88;89.80;102144.03;1056489;28;20775;-81
2022/06/12 00:16:34;;;;;;;9.63;3.83;;;;;;;11.93;89.25;102141.59;1053567;27;20802;-82
2022/06/12 00:17:06;;;;;;;10.25;4.00;;;;;;;12.04;88.25;102141.06;1051826;28;20298;-81
2022/06/12 00:17:38;;;;;;;11.40;3.65;;;;;;;12.12;88.46;102144.63;1048728;28;20332;-81
2022/06/12 00:18:10;;;;;;;5.30;3.08;;;;;;;11.99;88.64;102143.50;1047554;28;20299;-81
2022/06/12 00:18:43;;;;;;;7.63;3.20;;;;;;;11.96;88.88;102146.56;1050286;28;20360;-81
2022/06/12 00:19:15;;;;;;;7.53;3.40;;;;;;;11.95;88.59;102138.75;1051956;28;20320;-81
2022/06/12 00:19:49;;;;;;;7.65;3.15;;;;;;;11.36;89.24;102149.66;1055575;28;20304;-81
2022/06/12 00:20:23;;;;;;;5.45;3.17;;;;;;;11.45;90.04;102140.50;1051350;28;20313;-81
2022/06/12 00:21:10;;;;;;;8.77;3.55;;;;;;;11.71;89.94;102142.63;1057018;28;20316;-81
2022/06/12 00:21:42;;;;;;;7.82;3.30;;;;;;;11.91;89.69;102140.16;1056148;28;20372;-81
2022/06/12 00:22:18;;;;;;;6.72;2.70;;;;;;;11.66;89.47;102137.03;1058319;28;20430;-81
2022/06/12 00:22:51;;;;;;;7.70;3.30;;;;;;;11.71;89.05;102135.44;1060821;27;20296;-81
2022/06/12 00:23:23;;;;;;;4.72;3.60;;;;;;;11.62;89.25;102138.44;1059194;27;20292;-81
2022/06/12 00:24:01;;;;;;;6.32;3.42;;;;;;;10.84;90.52;102140.03;1055886;28;20379;-81
2022/06/12 00:24:32;;;;;;;7.10;3.75;;;;;;;11.23;91.03;102153.03;1056127;28;20305;-81
2022/06/12 00:25:06;;;;;;;9.77;3.33;;;;;;;10.99;91.39;102148.84;1057692;28;20297;-81
2022/06/12 00:25:38;;;;;;;11.18;4.03;;;;;;;10.82;91.88;102145.56;1050096;28;20301;-81
2022/06/12 00:26:13;;;;;;;3.65;2.72;;;;;;;10.97;92.40;102147.38;1049399;28;20302;-81
2022/06/12 00:26:49;;;;;;;8.43;3.08;;;;;;;11.05;92.37;102149.94;1047614;28;20310;-81
2022/06/12 00:27:22;;;;;;;6.70;2.55;;;;;;;11.07;91.95;102150.56;1056023;28;20300;-81
2022/06/12 00:27:54;;;;;;;5.15;2.95;;;;;;;11.32;92.28;102138.56;1051814;28;20297;-81
2022/06/12 00:28:25;;;;;;;8.35;2.83;;;;;;;11.39;91.68;102139.44;1051886;28;20296;-82
2022/06/12 00:28:59;;;;;;;8.45;3.67;;;;;;;11.20;91.33;102145.38;1052759;28;20305;-81
2022/06/12 00:29:33;;;;;;;6.82;3.65;;;;;;;11.13;92.21;102145.31;1052625;28;20297;-81
2022/06/12 00:30:07;;;;;;;4.05;2.72;;;;;;;11.21;91.56;102139.03;1052994;28;20290;-81
2022/06/12 00:30:38;;;;;;;4.28;2.90;;;;;;;11.24;90.83;102138.69;1051921;28;20305;-82
2022/06/12 00:31:10;;;;;;;12.38;3.75;;;;;;;11.07;91.57;102146.06;1046796;28;20342;-81
2022/06/12 00:31:47;;;;;;;7.22;3.15;;;;;;;11.08;91.97;102146.88;1055448;28;20290;-81
2022/06/12 00:32:18;;;;;;;7.00;3.60;;;;;;;10.71;92.48;102140.72;1051120;28;20289;-81
2022/06/12 00:32:52;;;;;;;6.45;3.20;;;;;;;10.74;93.06;102147.50;1052745;28;20305;-81
2022/06/12 00:33:26;;;;;;;11.20;3.63;;;;;;;10.86;93.39;102143.34;1056050;28;20394;-81
2022/06/12 00:33:59;;;;;;;7.65;3.42;;;;;;;10.90;93.24;102144.63;1058332;27;20305;-82
2022/06/12 00:34:37;;;;;;;10.00;3.10;;;;;;;10.90;93.23;102149.13;1055174;28;20304;-81
2022/06/12 00:35:08;;;;;;;7.68;3.20;;;;;;;11.00;93.07;102149.69;1050011;28;20309;-81
2022/06/12 00:35:40;;;;;;;5.75;3.10;;;;;;;11.01;92.78;102146.00;1047289;28;20306;-82
2022/06/12 00:36:12;;;;;;;6.03;3.30;;;;;;;11.01;92.97;102143.31;1046131;28;20299;-82
2022/06/12 00:36:43;;;;;;;6.95;3.10;;;;;;;10.77;93.29;102139.97;1048350;28;20297;-81
2022/06/12 00:37:18;;;;;;;5.82;3.90;;;;;;;10.87;92.77;102144.16;1051921;28;20294;-81
2022/06/12 00:37:50;;;;;;;4.68;3.25;;;;;;;10.64;92.98;102142.44;1048542;28;20298;-81
2022/06/12 00:38:21;;;;;;;6.30;3.05;;;;;;;10.43;93.64;102139.69;1048682;28;20294;-81
2022/06/12 00:38:53;;;;;;;8.73;3.88;;;;;;;10.37;94.00;102146.56;1048835;28;20306;-81
2022/06/12 00:39:26;;;;;;;8.15;2.88;;;;;;;10.51;93.82;102143.09;1049417;28;20341;-82
2022/06/12 00:39:57;;;;;;;5.53;3.28;;;;;;;10.48;94.15;102145.31;1044495;28;20358;-81
2022/06/12 00:40:29;;;;;;;9.23;3.63;;;;;;;10.73;94.64;102144.00;1048486;28;20683;-81
2022/06/12 00:41:01;;;;;;;8.38;3.10;;;;;;;10.57;94.15;102138.03;1043507;28;20657;-82
2022/06/12 00:41:33;;;;;;;4.75;3.28;;;;;;;10.72;94.22;102142.34;1044584;28;20307;-81
2022/06/12 00:42:06;;;;;;;5.57;2.92;;;;;;;10.66;93.80;102140.41;1054198;28;20297;-81
2022/06/12 00:42:47;;;;;;;7.50;4.38;;;;;;;10.43;94.09;102142.38;1058451;27;20356;-81
2022/06/12 00:43:20;;;;;;;4.70;3.20;;;;;;;10.44;94.08;102138.69;1053838;28;20664;-81
2022/06/12 00:43:52;;;;;;;6.60;3.00;;;;;;;10.26;94.45;102141.69;1051883;28;20297;-81
2022/06/12 00:44:34;;;;;;;8.73;3.45;;;;;;;10.44;94.75;102147.50;1048076;28;20301;-81
2022/06/12 00:45:46;;;;;;;12.35;3.38;;;;;;;10.14;94.63;102143.13;1051062;28;20310;-82
2022/06/12 00:46:45;;;;;;;5.13;2.80;;;;;;;10.33;95.45;102147.94;1052012;27;20320;-81
2022/06/12 00:47:17;;;;;;;6.60;3.13;;;;;;;10.09;95.37;102143.66;1063004;27;20318;-81
2022/06/12 00:47:49;;;;;;;8.30;3.60;;;;;;;10.11;95.90;102144.28;1054477;28;20302;-81
2022/06/12 00:48:24;;;;;;;7.63;3.08;;;;;;;10.01;96.03;102145.56;1055760;28;20717;-81
2022/06/12 00:48:56;;;;;;;8.02;3.45;;;;;;;10.20;96.46;102148.59;1053394;28;20369;-81
2022/06/12 00:49:35;;;;;;;8.13;3.90;;;;;;;10.37;96.81;102143.91;1050068;28;20313;-81
2022/06/12 00:50:09;;;;;;;8.63;3.80;;;;;;;10.59;96.23;102146.66;1056750;28;20302;-81
2022/06/12 00:50:45;;;;;;;9.25;4.18;;;;;;;10.81;95.52;102146.56;1051356;28;20311;-81
2022/06/12 00:51:19;;;;;;;15.50;4.00;;;;;;;10.87;94.29;102145.00;1051038;28;20328;-81
2022/06/12 00:51:58;;;;;;;6.53;3.35;;;;;;;10.74;93.17;102140.34;1045604;28;20295;-81
2022/06/12 00:52:35;;;;;;;8.05;3.65;;;;;;;10.53;93.13;102137.56;1050323;28;20291;-81
2022/06/12 00:53:11;;;;;;;6.28;3.65;;;;;;;10.39;93.84;102141.06;1052124;28;20278;-81
2022/06/12 00:53:52;;;;;;;6.45;3.28;;;;;;;10.56;94.00;102139.88;1057896;28;20376;-81
2022/06/12 00:54:24;;;;;;;7.95;3.67;;;;;;;10.55;94.30;102146.22;1051579;28;20298;-81
2022/06/12 00:55:10;;;;;;;11.10;3.85;;;;;;;10.47;94.96;102143.66;1050306;28;20048;-81
2022/06/12 00:55:51;;;;;;;5.50;3.65;;;;;;;10.23;95.01;102142.06;1055528;28;20312;-81
2022/06/12 00:56:47;;;;;;;8.07;4.00;;;;;;;10.24;95.06;102145.56;1052561;28;20294;-81
2022/06/12 00:57:21;;;;;;;6.95;4.22;;;;;;;10.39;95.30;102154.38;1051410;28;20360;-81
2022/06/12 00:57:59;;;;;;;7.30;3.10;;;;;;;10.40;95.13;102153.34;1047623;28;20302;-81
2022/06/12 00:58:39;;;;;;;11.40;4.13;;;;;;;10.16;95.39;102149.09;1047313;28;20294;-81
2022/06/12 00:59:14;;;;;;;4.93;2.78;;;;;;;10.19;95.31;102146.91;1046158;28;20298;-81
2022/06/12 00:59:52;;;;;;;6.70;3.78;;;;;;;10.23;95.73;102151.88;1057538;28;20308;-81
2022/06/12 01:00:24;;;;;;;11.48;3.83;;;;;;;10.14;96.06;102151.94;1058573;28;20301;-82
2022/06/12 01:00:55;;;;;;;7.80;4.20;;;;;;;10.04;95.90;102147.88;1051368;28;20305;-81
2022/06/12 01:01:34;;;;;;;7.82;3.25;;;;;;;9.97;96.17;102145.09;1051632;28;20393;-81
2022/06/12 01:02:09;;;;;;;9.32;4.10;;;;;;;9.90;96.89;102149.50;1047501;28;20310;-81
2022/06/12 01:02:41;;;;;;;10.18;3.38;;;;;;;9.82;96.78;102145.06;1051569;28;20657;-81
2022/06/12 01:03:14;;;;;;;7.05;3.53;;;;;;;9.63;97.02;102150.88;1056172;28;20384;-81
2022/06/12 01:06:37;;;;;;;6.75;3.92;;;;;;;9.85;97.84;102147.34;1056268;28;20460;-81
2022/06/12 01:07:12;;;;;;;6.95;3.30;;;;;;;10.14;97.53;102138.63;1055488;28;20293;-81
2022/06/12 01:07:48;;;;;;;11.25;3.45;;;;;;;10.12;97.88;102143.28;1048846;28;20306;-81
2022/06/12 01:08:21;;;;;;;7.85;3.90;;;;;;;10.06;97.44;102140.53;1044846;28;20295;-81
2022/06/12 01:08:53;;;;;;;6.80;4.10;;;;;;;10.16;97.79;102152.59;1041479;28;20300;-82
2022/06/12 01:09:30;;;;;;;10.32;3.78;;;;;;;10.15;97.58;102142.94;1047598;28;20800;-81
2022/06/12 01:10:07;;;;;;;14.93;4.25;;;;;;;10.30;96.99;102142.16;1047343;28;20308;-81
2022/06/12 01:10:41;;;;;;;7.53;4.40;;;;;;;10.23;97.43;102141.25;1050754;28;20641;-81
2022/06/12 01:11:15;;;;;;;8.23;4.07;;;;;;;10.14;97.18;102141.28;1046609;28;20729;-81
2022/06/12 01:11:48;;;;;;;7.65;3.88;;;;;;;9.90;96.93;102141.53;1047547;28;20842;-81
2022/06/12 01:12:24;;;;;;;7.30;3.28;;;;;;;10.09;96.86;102145.47;1050088;28;20396;-81
2022/06/12 01:13:00;;;;;;;7.45;3.70;;;;;;;10.19;96.71;102141.56;1050169;28;20297;-81
2022/06/12 01:13:38;;;;;;;8.50;4.13;;;;;;;10.29;96.12;102140.50;1046803;28;20719;-82
2022/06/12 01:14:13;;;;;;;9.68;4.30;;;;;;;9.97;96.01;102139.78;1049706;28;20661;-81
2022/06/12 01:14:50;;;;;;;4.32;3.92;;;;;;;9.86;95.81;102143.72;1050532;28;20295;-81
2022/06/12 01:15:26;;;;;;;10.45;3.97;;;;;;;9.79;96.77;102140.09;1048343;28;20291;-81
2022/06/12 01:16:00;;;;;;;7.78;3.53;;;;;;;9.79;96.37;102136.59;1041616;28;20325;-81
2022/06/12 01:16:33;;;;;;;6.10;3.63;;;;;;;9.86;96.94;102141.06;1048252;28;20294;-81
2022/06/12 01:17:05;;;;;;;9.60;3.92;;;;;;;9.70;97.04;102140.34;1042870;28;20361;-81
2022/06/12 01:17:37;;;;;;;7.25;4.05;;;;;;;9.63;97.76;102134.09;1045445;28;20291;-81
2022/06/12 01:18:12;;;;;;;8.55;3.63;;;;;;;9.51;97.61;102153.09;1045581;28;20307;-81
2022/06/12 01:18:48;;;;;;;5.82;4.20;;;;;;;9.79;98.35;102149.91;1048081;28;20390;-81
2022/06/12 01:19:34;;;;;;;8.45;3.42;;;;;;;9.72;97.51;102141.81;1050671;28;20303;-81
2022/06/12 01:20:09;;;;;;;7.22;4.15;;;;;;;9.87;98.14;102141.88;1047692;28;20283;-81
2022/06/12 01:20:49;;;;;;;7.57;3.40;;;;;;;10.00;97.14;102142.09;1048279;28;20306;-81
2022/06/12 01:22:08;;;;;;;10.35;4.00;;;;;;;10.03;96.86;102140.88;1049986;28;20313;-81
2022/06/12 01:22:57;;;;;;;6.40;3.00;;;;;;;10.30;96.46;102142.16;1046136;28;20292;-81
2022/06/12 01:23:54;;;;;;;7.57;3.85;;;;;;;10.37;95.35;102143.06;1056488;27;20314;-81
2022/06/12 01:24:47;;;;;;;8.00;3.05;;;;;;;10.53;94.96;102140.25;1059639;27;20288;-81
2022/06/12 01:25:28;;;;;;;8.18;3.03;;;;;;;10.64;94.46;102130.94;1054073;28;20391;-81
2022/06/12 01:26:05;;;;;;;8.95;3.65;;;;;;;10.55;94.01;102138.22;1052257;28;20802;-81
2022/06/12 01:26:54;;;;;;;12.00;3.67;;;;;;;10.57;93.85;102132.72;1056500;28;20446;-81
2022/06/12 01:28:07;;;;;;;19.35;5.63;;;;;;;10.68;93.92;102134.91;1056146;28;20308;-81
2022/06/12 01:28:47;;;;;;;13.77;4.30;;;;;;;10.84;93.52;102130.19;1054992;28;20293;-81
2022/06/12 01:29:49;;;;;;;7.72;3.63;;;;;;;10.35;92.74;102135.28;1054478;28;20306;-81
2022/06/12 01:30:23;;;;;;;;;;;;;;;10.31;93.11;102130.50;1050995;28;20309;-82
2022/06/12 01:31:03;;;;;;;4.65;2.80;;;;;;;10.06;93.15;102133.38;1052380;27;19991;-81
2022/06/12 01:31:37;;;;;;;5.55;3.17;;;;;;;10.13;93.51;102125.47;1058480;27;20360;-81
2022/06/12 01:32:22;;;;;;;4.10;2.95;;;;;;;10.04;93.63;102132.72;1063534;27;20284;-81
2022/06/12 01:33:09;;;;;;;11.38;3.47;;;;;;;10.39;93.80;102133.88;1064915;27;20299;-81
2022/06/12 01:33:53;;;;;;;4.95;3.35;;;;;;;10.48;93.39;102129.31;1059223;27;20304;-81
2022/06/12 01:35:02;;;;;;;6.85;3.30;;;;;;;10.52;92.96;102133.25;1055207;28;20302;-81
2022/06/12 01:36:01;;;;;;;6.32;3.67;;;;;;;10.46;92.57;102132.16;1042023;28;20304;-81
2022/06/12 01:36:51;;;;;;;10.15;4.50;;;;;;;10.37;92.81;102133.25;1061183;27;20303;-81
2022/06/12 01:37:47;;;;;;;7.43;3.53;;;;;;;10.09;93.39;102137.50;1065298;27;20649;-81
2022/06/12 01:38:39;;;;;;;10.30;4.00;;;;;;;10.16;93.15;102136.63;1063573;27;20291;-81
2022/06/12 01:39:26;;;;;;;6.55;3.83;;;;;;;9.71;93.83;102139.34;1060132;27;20288;-81
2022/06/12 01:40:22;;;;;;;6.80;3.45;;;;;;;9.60;94.57;102141.44;1057798;27;20766;-81
2022/06/12 01:40:58;;;;;;;6.43;3.30;;;;;;;9.49;94.79;102144.47;1056888;28;20298;-81
2022/06/12 01:41:35;;;;;;;6.38;3.20;;;;;;;9.74;95.42;102131.00;1054404;28;20293;-81
2022/06/12 01:42:28;;;;;;;9.75;3.40;;;;;;;9.84;95.33;102142.22;1053935;28;20451;-81
2022/06/12 01:43:12;;;;;;;7.43;3.25;;;;;;;9.65;95.15;102132.09;1051517;28;20294;-81
2022/06/12 01:43:51;;;;;;;4.22;3.40;;;;;;;9.79;95.65;102133.94;1049889;28;20310;-82
2022/06/12 01:44:32;;;;;;;13.75;4.30;;;;;;;9.65;96.06;102132.91;1052532;28;20316;-81
2022/06/12 01:45:22;;;;;;;9.05;3.75;;;;;;;9.59;95.96;102129.13;1056804;28;20875;-81
2022/06/12 01:46:04;;;;;;;6.38;3.45;;;;;;;9.48;95.63;102126.03;1052662;28;20289;-81
2022/06/12 01:46:46;;;;;;;4.22;3.00;;;;;;;9.74;95.59;102125.69;1052697;28;20807;-81
2022/06/12 01:47:48;;;;;;;3.28;2.92;;;;;;;9.78;96.40;102126.97;1049784;28;20290;-81
2022/06/12 01:48:23;;;;;;;3.85;3.13;;;;;;;9.44;96.62;102133.56;1054169;27;20309;-81
2022/06/12 01:49:02;;;;;;;6.70;3.22;;;;;;;9.70;95.80;102132.38;1056500;27;20085;-81
2022/06/12 01:49:44;;;;;;;5.50;3.35;;;;;;;9.59;95.90;102122.97;1056724;28;20309;-81
2022/06/12 01:50:20;;;;;;;5.55;3.05;;;;;;;9.54;95.77;102126.16;1053030;28;20294;-81
2022/06/12 01:50:57;;;;;;;4.70;3.03;;;;;;;9.59;96.16;102128.31;1054831;28;20351;-81
2022/06/12 01:51:34;;;;;;;5.82;3.15;;;;;;;9.31;95.68;102130.63;1054758;28;20793;-81
2022/06/12 01:52:12;;;;;;;8.57;3.00;;;;;;;9.48;96.51;102128.69;1055258;28;20321;-81
2022/06/12 01:52:54;;;;;;;6.63;4.18;;;;;;;9.10;96.14;102123.31;1055623;28;20558;-79
2022/06/12 01:53:41;;;;;;;6.95;3.47;;;;;;;9.47;97.48;102127.88;1052448;28;20377;-81
2022/06/12 01:54:22;;;;;;;9.15;3.50;;;;;;;9.19;97.64;102127.56;1056676;28;20818;-81
2022/06/12 01:55:20;;;;;;;7.07;3.42;;;;;;;9.59;97.01;102129.13;1052467;28;20679;-82
2022/06/12 01:56:00;;;;;;;6.65;3.25;;;;;;;9.23;96.88;102122.72;1049290;28;20040;-81
2022/06/12 01:56:58;;;;;;;8.57;3.15;;;;;;;9.19;97.21;102124.06;1053213;28;20707;-81
2022/06/12 01:57:41;;;;;;;6.00;3.47;;;;;;;8.97;97.78;102115.88;1054404;27;20381;-81
2022/06/12 01:58:27;;;;;;;5.22;3.60;;;;;;;9.24;97.71;102119.06;1053684;28;20657;-81
2022/06/12 01:59:24;;;;;;;6.28;3.65;;;;;;;9.43;97.27;102121.25;1048121;28;20325;-81
2022/06/12 02:00:06;;;;;;;5.63;3.58;;;;;;;9.44;97.31;102120.25;1050377;28;20290;-81
2022/06/12 02:00:44;;;;;;;5.07;3.35;;;;;;;9.41;96.68;102120.59;1058923;27;20296;-81
2022/06/12 02:01:44;;;;;;;6.93;3.55;;;;;;;9.21;96.95;102122.06;1056537;28;20301;-81
2022/06/12 02:02:27;;;;;;;5.88;3.38;;;;;;;9.50;97.03;102124.84;1056661;28;20305;-82
2022/06/12 02:03:04;;;;;;;7.10;3.55;;;;;;;9.10;96.71;102123.31;1056340;28;20309;-81
2022/06/12 02:04:10;;;;;;;7.18;3.13;;;;;;;9.23;96.65;102123.53;1060887;27;20650;-79
2022/06/12 02:04:56;;;;;;;4.35;3.28;;;;;;;9.50;96.19;102132.84;1056047;28;20376;-79
2022/06/12 02:05:42;;;;;;;5.80;3.10;;;;;;;9.68;95.70;102132.53;1052854;27;20637;-79
2022/06/12 02:06:19;;;;;;;6.82;3.22;;;;;;;9.74;95.24;102123.03;1050432;28;20873;-79
2022/06/12 02:07:08;;;;;;;7.15;3.33;;;;;;;9.52;94.96;102130.00;1043954;28;20306;-79
2022/06/12 02:08:00;;;;;;;8.40;3.30;;;;;;;9.23;94.97;102122.72;1047524;28;20302;-79
2022/06/12 02:08:48;;;;;;;5.88;2.53;;;;;;;9.06;95.46;102126.50;1059038;27;20289;-78
2022/06/12 02:09:27;;;;;;;11.27;3.28;;;;;;;9.09;95.30;102123.47;1054438;28;20310;-78
2022/06/12 02:10:06;;;;;;;8.65;2.95;;;;;;;9.34;96.87;102127.66;1052358;28;20779;-78
2022/06/12 02:10:45;;;;;;;9.95;2.72;;;;;;;9.42;96.61;102132.06;1052017;28;20302;-78
2022/06/12 02:13:24;;;;;;;9.23;3.20;;;;;;;9.23;96.70;102130.69;1057031;27;20326;-79
2022/06/12 02:13:57;;;;;;;5.25;3.15;;;;;;;9.25;96.18;102128.69;1059867;27;20308;-78
2022/06/12 02:14:38;;;;;;;3.53;2.65;;;;;;;9.07;97.00;102131.63;1057387;27;20384;-78
2022/06/12 02:15:28;;;;;;;6.32;3.03;;;;;;;9.05;97.16;102130.16;1056389;28;20301;-79
2022/06/12 02:16:05;;;;;;;6.88;3.83;;;;;;;9.33;97.16;102133.97;1053809;28;20047;-79
2022/06/12 02:16:39;;;;;;;5.28;3.45;;;;;;;9.14;97.35;102121.13;1050457;28;20044;-79
2022/06/12 02:17:15;;;;;;;5.00;2.92;;;;;;;9.25;96.62;102126.03;1047977;28;20301;-79
2022/06/12 02:17:53;;;;;;;5.38;3.05;;;;;;;9.33;97.07;102127.81;1049095;28;20306;-79
2022/06/12 02:18:33;;;;;;;7.35;3.80;;;;;;;9.12;97.17;102120.47;1050153;28;20298;-79
2022/06/12 02:19:10;;;;;;;7.35;2.40;;;;;;;9.33;96.71;102127.81;1054003;28;20478;-79
2022/06/12 02:19:46;;;;;;;6.13;2.83;;;;;;;9.32;96.55;102132.31;1046672;28;20041;-80
2022/06/12 02:20:19;;;;;;;9.25;3.00;;;;;;;9.13;96.63;102124.78;1047638;28;20656;-79
2022/06/12 02:21:02;;;;;;;4.70;2.60;;;;;;;9.24;96.15;102124.38;1052131;28;20723;-79
2022/06/12 02:21:48;;;;;;;5.95;2.90;;;;;;;9.41;96.29;102122.44;1047986;28;20470;-79
2022/06/12 02:22:23;;;;;;;4.20;2.80;;;;;;;9.54;96.02;102126.16;1050213;28;20706;-79
2022/06/12 02:22:56;;;;;;;8.75;2.67;;;;;;;9.60;96.15;102124.63;1052243;28;20286;-79
2022/06/12 02:23:44;;;;;;;4.32;2.67;;;;;;;9.62;95.28;102121.81;1054345;28;20741;-79
2022/06/12 02:24:20;;;;;;;5.43;2.85;;;;;;;9.51;95.37;102126.50;1049336;28;20298;-79
2022/06/12 02:25:17;;;;;;;3.88;2.50;;;;;;;9.28;95.18;102118.53;1054172;28;20293;-79
2022/06/12 02:25:52;;;;;;;4.60;3.17;;;;;;;9.27;94.83;102124.00;1052809;27;20352;-79
2022/06/12 02:26:28;;;;;;;8.90;3.85;;;;;;;9.24;94.81;102119.88;1047808;28;20391;-79
2022/06/12 02:27:10;;;;;;;8.60;3.33;;;;;;;9.42;95.41;102116.94;1051960;28;20302;-79
2022/06/12 02:27:47;;;;;;;5.68;3.47;;;;;;;9.03;95.50;102117.00;1048295;28;20290;-79
2022/06/12 02:28:23;;;;;;;4.50;3.00;;;;;;;8.99;96.13;102113.03;1048772;28;20446;-79
2022/06/12 02:28:59;;;;;;;5.75;3.20;;;;;;;9.14;96.46;102113.16;1048374;28;20334;-79
2022/06/12 02:29:43;;;;;;;10.32;3.67;;;;;;;9.13;95.67;102122.13;1047947;28;20291;-79
2022/06/12 02:30:24;;;;;;;5.20;3.75;;;;;;;9.28;96.44;102115.88;1047236;28;20314;-78
2022/06/12 02:30:59;;;;;;;6.25;3.13;;;;;;;9.48;96.24;102118.88;1050531;28;20829;-79
2022/06/12 02:31:35;;;;;;;7.50;3.00;;;;;;;9.24;95.56;102111.06;1056102;28;20297;-79
2022/06/12 02:32:21;;;;;;;10.90;2.97;;;;;;;9.33;95.90;102111.88;1055074;28;20307;-79
2022/06/12 02:33:01;;;;;;;10.68;3.28;;;;;;;9.44;95.54;102111.44;1056388;28;20297;-79
2022/06/12 02:33:37;;;;;;;11.23;3.80;;;;;;;9.45;96.00;102121.91;1056157;28;20301;-79
2022/06/12 02:34:16;;;;;;;8.63;3.28;;;;;;;9.52;96.11;102106.88;1056644;27;20055;-79
2022/06/12 02:34:51;;;;;;;8.48;3.10;;;;;;;9.60;95.86;102114.81;1055999;28;20305;-79
2022/06/12 02:35:29;;;;;;;4.45;2.70;;;;;;;9.33;94.71;102110.03;1054588;28;20305;-79
2022/06/12 02:36:06;;;;;;;5.20;2.83;;;;;;;9.45;94.98;102105.94;1052000;28;20316;-79
2022/06/12 02:36:42;;;;;;;5.15;2.65;;;;;;;9.47;94.83;102103.94;1053090;28;20338;-79
2022/06/12 02:37:20;;;;;;;8.93;3.20;;;;;;;9.37;95.08;102114.00;1051045;28;20299;-79
2022/06/12 02:37:55;;;;;;;8.00;2.92;;;;;;;9.26;95.13;102103.75;1050914;28;20298;-79
2022/06/12 02:39:16;;;;;;;8.43;3.55;;;;;;;9.32;95.05;102103.06;1050553;28;20374;-79
2022/06/12 02:39:51;;;;;;;9.13;2.58;;;;;;;9.27;94.78;102100.09;1051002;28;20323;-79
2022/06/12 02:40:32;;;;;;;6.18;3.25;;;;;;;9.32;95.57;102107.56;1045988;28;20294;-81
2022/06/12 02:41:24;;;;;;;;;;;;;;;9.55;94.72;102106.53;1057382;27;20363;-81
2022/06/12 02:42:01;;;;;;;9.57;3.38;;;;;;;9.52;94.83;102106.88;1065251;27;19919;-81
2022/06/12 02:42:37;;;;;;;9.73;3.35;;;;;;;9.37;94.96;102108.69;1059876;27;20866;-81
2022/06/12 02:43:15;;;;;;;6.35;3.20;;;;;;;9.29;95.00;102111.38;1056679;28;20297;-81
2022/06/12 02:43:47;;;;;;;6.68;3.08;;;;;;;9.32;95.55;102104.91;1055097;28;20411;-80
2022/06/12 02:44:33;;;;;;;5.57;3.20;;;;;;;9.50;95.44;102103.56;1054420;28;20305;-81
2022/06/12 02:45:09;;;;;;;7.72;3.10;;;;;;;9.38;94.86;102109.50;1051687;28;20294;-81
2022/06/12 02:45:49;;;;;;;8.73;2.63;;;;;;;9.25;94.84;102104.75;1051452;28;20298;-81
2022/06/12 02:46:26;;;;;;;7.43;3.55;;;;;;;9.38;94.64;102109.50;1056679;28;20300;-81
2022/06/12 02:47:11;;;;;;;7.30;3.47;;;;;;;9.54;94.60;102104.03;1058149;27;20043;-81
2022/06/12 02:47:44;;;;;;;6.93;2.72;;;;;;;9.67;94.86;102109.59;1058903;27;20631;-81
2022/06/12 02:48:16;;;;;;;7.32;3.33;;;;;;;9.49;94.55;102106.41;1052261;28;20294;-81
2022/06/12 02:48:48;;;;;;;7.43;2.97;;;;;;;9.54;94.47;102104.88;1054944;28;20294;-81
2022/06/12 02:49:20;;;;;;;10.60;3.55;;;;;;;9.58;94.68;102106.16;1052674;28;20302;-81
2022/06/12 02:49:53;;;;;;;10.00;3.92;;;;;;;9.27;94.71;102110.72;1054340;27;20302;-81
2022/06/12 02:50:28;;;;;;;7.38;4.35;;;;;;;9.13;94.69;102103.50;1060657;27;21017;-81
2022/06/12 02:51:32;;;;;;;5.20;3.00;;;;;;;9.19;94.92;102106.28;1053917;28;20290;-81
2022/06/12 02:52:15;;;;;;;12.15;3.13;;;;;;;9.35;95.90;102113.34;1056257;28;20301;-81
2022/06/12 02:53:01;;;;;;;9.10;3.25;;;;;;;9.34;96.03;102108.22;1052826;28;20374;-81
2022/06/12 02:54:10;;;;;;;2.75;2.35;;;;;;;9.26;95.67;102109.91;1056601;28;20823;-81
2022/06/12 02:55:17;;;;;;;3.95;2.80;;;;;;;8.86;96.56;102107.47;1063418;27;20292;-81
2022/06/12 02:56:21;;;;;;;8.55;3.10;;;;;;;8.77;96.31;102116.50;1049864;28;20317;-81
2022/06/12 02:57:21;;;;;;;3.22;2.42;;;;;;;8.69;97.80;102109.38;1047079;28;20302;-81
2022/06/12 02:58:16;;;;;;;5.93;3.13;;;;;;;9.10;96.80;102106.53;1030538;28;20317;-81
2022/06/12 02:58:55;;;;;;;5.05;2.40;;;;;;;9.00;97.23;102112.03;1057368;27;20310;-81
2022/06/12 02:59:27;;;;;;;5.43;3.33;;;;;;;9.12;97.11;102117.81;1058400;27;20304;-81
2022/06/12 03:00:12;;;;;;;5.50;3.00;;;;;;;8.86;97.08;102105.66;1056531;27;20305;-80
2022/06/12 03:00:51;;;;;;;3.97;2.85;;;;;;;8.74;97.92;102107.03;1056228;28;20779;-81
2022/06/12 03:01:31;;;;;;;6.28;3.15;;;;;;;9.04;98.22;102107.22;1055351;28;20293;-81
2022/06/12 03:02:37;;;;;;;8.52;3.03;;;;;;;9.30;97.13;102113.03;1053839;28;20316;-81
2022/06/12 03:03:25;;;;;;;8.70;2.60;;;;;;;9.19;97.01;102108.13;1054069;28;20043;-81
2022/06/12 03:04:21;;;;;;;4.22;2.80;;;;;;;8.77;96.57;102101.41;1055601;28;20329;-81
2022/06/12 03:05:01;;;;;;;5.00;2.80;;;;;;;8.72;97.52;102103.72;1055716;27;20304;-81
2022/06/12 03:05:37;;;;;;;5.18;2.80;;;;;;;8.98;97.11;102106.91;1055096;28;21056;-81
2022/06/12 03:06:10;;;;;;;4.57;2.70;;;;;;;8.99;97.71;102111.22;1058367;27;20643;-81
2022/06/12 03:06:42;;;;;;;8.88;3.80;;;;;;;9.14;97.01;102111.31;1058566;27;20664;-81
2022/06/12 03:07:14;;;;;;;4.78;3.35;;;;;;;9.27;97.24;102111.53;1057832;27;20300;-81
2022/06/12 03:07:47;;;;;;;6.13;3.42;;;;;;;9.35;96.70;102105.38;1056354;28;20290;-81
2022/06/12 03:08:22;;;;;;;6.85;2.92;;;;;;;9.40;96.44;102110.97;1052057;28;20298;-80
2022/06/12 03:08:58;;;;;;;6.85;3.90;;;;;;;9.49;96.80;102106.41;1048938;28;20298;-81
2022/06/12 03:09:29;;;;;;;12.32;3.20;;;;;;;9.49;96.20;102101.94;1051289;28;20715;-80